Time;durP1;ratioP1;P1;durP2;ratioP2;P2;SDS_P1;SDS_P2;PMS_P1;PMS_P2;Temp;Humidity;BMP_temperature;BMP_pressure;BME280_temperature;BME280_humidity;BME280_pressure;Samples;Min_cycle;Max_cycle;Signal;HPM_P1;HPM_P2
2023/07/26 00:01:49;;;;;;;0.90;0.70;;;;;;;19.06;100.00;98160.41;5071638;28;20260;-78
2023/07/26 00:04:16;;;;;;;0.83;0.70;;;;;;;19.14;100.00;98153.41;5069032;28;20614;-78
2023/07/26 00:06:43;;;;;;;0.80;0.80;;;;;;;18.90;100.00;98142.88;5071451;28;20675;-79
2023/07/26 00:09:09;;;;;;;0.83;0.67;;;;;;;19.01;100.00;98152.38;5071843;28;20196;-77
2023/07/26 00:11:36;;;;;;;0.80;0.80;;;;;;;18.99;100.00;98165.44;5072155;28;20193;-79
2023/07/26 00:14:04;;;;;;;1.67;0.80;;;;;;;19.01;100.00;98174.09;5071486;28;20281;-77
2023/07/26 00:16:31;;;;;;;2.10;0.63;;;;;;;18.94;100.00;98176.47;5068232;28;20226;-78
2023/07/26 00:18:59;;;;;;;2.53;0.80;;;;;;;18.89;100.00;98187.44;5068245;28;20248;-77
2023/07/26 00:21:26;;;;;;;0.73;0.73;;;;;;;18.95;100.00;98185.38;5070328;28;20194;-78
2023/07/26 00:23:53;;;;;;;0.97;0.80;;;;;;;18.84;100.00;98176.69;5071239;28;20211;-78
2023/07/26 00:26:19;;;;;;;0.60;0.60;;;;;;;18.88;100.00;98172.25;5068572;28;20818;-79
2023/07/26 00:28:46;;;;;;;0.67;0.67;;;;;;;18.97;100.00;98159.53;5069650;28;20215;-78
2023/07/26 00:31:12;;;;;;;0.90;0.90;;;;;;;18.87;100.00;98166.03;5065054;28;21159;-78
2023/07/26 00:33:39;;;;;;;1.00;0.80;;;;;;;18.94;100.00;98159.38;5060077;28;20195;-77
2023/07/26 00:36:06;;;;;;;0.70;0.70;;;;;;;18.96;100.00;98166.06;5049759;28;20198;-79
2023/07/26 00:38:33;;;;;;;1.53;0.80;;;;;;;18.96;100.00;98176.94;5053556;28;20250;-77
2023/07/26 00:40:59;;;;;;;0.70;0.70;;;;;;;18.88;100.00;98181.19;5063249;28;20253;-78
2023/07/26 00:43:26;;;;;;;1.47;0.73;;;;;;;18.86;100.00;98193.47;5060098;28;20643;-77
2023/07/26 00:45:53;;;;;;;1.27;0.90;;;;;;;18.83;100.00;98196.78;5065809;28;20613;-78
2023/07/26 00:48:20;;;;;;;0.90;0.80;;;;;;;18.61;100.00;98192.16;5045894;28;20245;-77
2023/07/26 00:50:47;;;;;;;1.40;0.70;;;;;;;18.71;100.00;98181.06;5051760;28;20197;-77
2023/07/26 00:53:14;;;;;;;0.80;0.80;;;;;;;18.68;100.00;98195.25;5053839;28;20195;-78
2023/07/26 00:55:43;;;;;;;1.10;1.00;;;;;;;18.70;100.00;98200.38;5071375;28;20190;-78
2023/07/26 00:58:13;;;;;;;0.70;0.70;;;;;;;18.70;100.00;98201.16;5057461;28;20230;-76
2023/07/26 01:00:44;;;;;;;1.40;0.80;;;;;;;18.65;100.00;98192.34;5059441;28;20237;-78
2023/07/26 01:03:11;;;;;;;1.07;0.97;;;;;;;18.59;100.00;98205.22;5071165;28;20196;-77
2023/07/26 01:05:45;;;;;;;0.60;0.60;;;;;;;18.64;100.00;98210.53;5066279;28;20620;-78
2023/07/26 01:08:34;;;;;;;0.70;0.70;;;;;;;18.55;100.00;98209.66;5044059;28;20208;-78
2023/07/26 01:11:06;;;;;;;1.40;0.67;;;;;;;18.63;100.00;98225.19;5070776;28;20564;-78
2023/07/26 01:13:49;;;;;;;1.23;0.80;;;;;;;18.69;100.00;98248.38;5063268;28;20221;-78
2023/07/26 01:16:16;;;;;;;0.93;0.90;;;;;;;18.72;100.00;98242.34;5044359;28;20214;-77
2023/07/26 01:18:43;;;;;;;1.17;0.83;;;;;;;18.71;100.00;98250.81;5070091;28;20196;-78
2023/07/26 01:21:10;;;;;;;1.10;0.70;;;;;;;18.75;100.00;98260.75;5071724;28;20194;-77
2023/07/26 01:23:38;;;;;;;0.77;0.77;;;;;;;18.67;100.00;98260.63;5066040;28;20630;-78
2023/07/26 01:26:05;;;;;;;4.77;0.90;;;;;;;18.65;100.00;98265.59;5070689;28;20198;-78
2023/07/26 01:28:32;;;;;;;1.37;0.80;;;;;;;18.55;100.00;98266.59;5074206;28;20206;-76
2023/07/26 01:31:00;;;;;;;1.10;0.90;;;;;;;18.60;100.00;98276.53;5061905;28;20661;-76
2023/07/26 01:33:28;;;;;;;2.00;0.80;;;;;;;18.62;100.00;98271.59;5074500;28;20219;-78
2023/07/26 01:35:55;;;;;;;2.40;0.80;;;;;;;18.61;100.00;98270.00;5056774;28;20198;-80
2023/07/26 01:38:23;;;;;;;0.70;0.70;;;;;;;18.69;100.00;98270.09;5056901;28;20194;-77
2023/07/26 01:40:50;;;;;;;1.50;0.70;;;;;;;18.72;100.00;98274.91;5049640;28;20196;-78
2023/07/26 01:43:17;;;;;;;1.33;0.90;;;;;;;18.72;100.00;98279.53;5034594;28;20257;-78
2023/07/26 01:45:44;;;;;;;0.77;0.70;;;;;;;18.69;100.00;98286.38;5074480;28;20583;-77
2023/07/26 01:48:10;;;;;;;0.90;0.70;;;;;;;18.74;100.00;98272.69;5074509;28;20620;-77
2023/07/26 01:50:37;;;;;;;0.90;0.70;;;;;;;18.61;100.00;98272.72;5073580;28;20202;-77
2023/07/26 01:53:03;;;;;;;0.80;0.77;;;;;;;18.72;100.00;98279.53;5074471;28;20214;-77
2023/07/26 01:55:30;;;;;;;1.10;0.87;;;;;;;18.61;100.00;98280.88;5054827;28;20408;-78
2023/07/26 01:57:57;;;;;;;0.90;0.80;;;;;;;18.59;100.00;98267.59;5059131;28;20201;-79
2023/07/26 02:00:25;;;;;;;2.67;0.80;;;;;;;18.59;100.00;98267.59;5059983;28;20209;-77
2023/07/26 02:02:51;;;;;;;1.00;0.80;;;;;;;18.59;100.00;98262.16;5073685;28;20201;-77
2023/07/26 02:05:18;;;;;;;1.00;0.90;;;;;;;18.61;100.00;98259.97;5055280;28;20559;-77
2023/07/26 02:07:45;;;;;;;0.60;0.60;;;;;;;18.48;100.00;98269.69;5058421;28;20228;-76
2023/07/26 02:10:12;;;;;;;0.73;0.70;;;;;;;18.56;100.00;98272.84;5054232;28;20636;-77
2023/07/26 02:12:38;;;;;;;1.70;0.70;;;;;;;18.41;100.00;98274.72;5072567;28;20206;-77
2023/07/26 02:15:07;;;;;;;1.20;0.73;;;;;;;18.39;100.00;98289.69;5047278;28;20210;-76
2023/07/26 02:17:34;;;;;;;1.90;0.83;;;;;;;18.46;100.00;98301.75;5070339;28;20185;-78
2023/07/26 02:20:01;;;;;;;0.97;0.80;;;;;;;18.57;100.00;98301.56;5070338;28;20197;-77
2023/07/26 02:22:28;;;;;;;0.93;0.60;;;;;;;18.42;100.00;98294.50;5054082;28;20193;-77
2023/07/26 02:24:54;;;;;;;0.80;0.80;;;;;;;18.50;100.00;98315.50;5050781;28;20308;-77
2023/07/26 02:27:21;;;;;;;1.73;0.83;;;;;;;18.54;100.00;98311.09;5071878;28;20760;-77
2023/07/26 02:29:48;;;;;;;1.60;0.70;;;;;;;18.36;100.00;98312.78;5051321;28;20198;-77
2023/07/26 02:32:15;;;;;;;1.00;0.80;;;;;;;18.49;100.00;98311.97;5054198;28;20578;-78
2023/07/26 02:34:41;;;;;;;1.13;0.70;;;;;;;18.44;100.00;98306.66;5045673;28;20201;-77
2023/07/26 02:37:08;;;;;;;0.70;0.70;;;;;;;18.36;100.00;98311.97;5066993;28;20235;-77
2023/07/26 02:39:35;;;;;;;0.70;0.70;;;;;;;18.25;100.00;98321.41;5073319;28;20189;-78
2023/07/26 02:42:02;;;;;;;2.13;0.67;;;;;;;18.36;100.00;98330.97;5073404;28;20189;-77
2023/07/26 02:44:28;;;;;;;0.90;0.70;;;;;;;18.35;100.00;98334.78;5073506;28;20210;-77
2023/07/26 02:46:55;;;;;;;0.93;0.70;;;;;;;18.25;100.00;98333.06;5068997;28;20713;-77
2023/07/26 02:49:22;;;;;;;0.80;0.70;;;;;;;18.05;100.00;98325.34;5073144;28;20189;-78
2023/07/26 02:51:48;;;;;;;0.90;0.70;;;;;;;18.23;100.00;98342.63;5070635;28;20401;-77
2023/07/26 02:54:15;;;;;;;0.80;0.80;;;;;;;18.23;100.00;98335.28;5072963;28;20205;-77
2023/07/26 02:56:42;;;;;;;1.33;0.80;;;;;;;18.14;100.00;98341.69;5072922;28;20660;-77
2023/07/26 02:59:08;;;;;;;0.67;0.60;;;;;;;18.15;100.00;98351.44;5072851;28;20577;-78
2023/07/26 03:01:35;;;;;;;0.93;0.90;;;;;;;18.26;100.00;98352.84;5072795;28;20189;-79
2023/07/26 03:07:49;;;;;;;0.70;0.70;;;;;;;18.11;100.00;98355.84;5071452;28;20196;-77
2023/07/26 03:10:17;;;;;;;1.30;0.70;;;;;;;18.12;100.00;98350.13;5034845;28;20347;-77
2023/07/26 03:12:43;;;;;;;1.47;0.90;;;;;;;18.14;100.00;98339.00;5069271;28;20194;-78
2023/07/26 03:15:10;;;;;;;0.73;0.60;;;;;;;17.95;100.00;98339.88;5046150;28;20205;-77
2023/07/26 03:17:37;;;;;;;0.70;0.67;;;;;;;17.84;100.00;98346.56;5072105;28;20189;-77
2023/07/26 03:20:04;;;;;;;1.00;0.70;;;;;;;17.75;100.00;98351.06;5071804;28;20197;-79
2023/07/26 03:22:31;;;;;;;1.17;0.70;;;;;;;17.71;100.00;98357.34;5051648;28;20607;-77
2023/07/26 03:24:58;;;;;;;1.00;0.70;;;;;;;17.63;100.00;98349.91;5072228;28;20296;-78
2023/07/26 03:27:25;;;;;;;0.67;0.67;;;;;;;17.54;100.00;98353.25;5071773;28;20708;-78
2023/07/26 03:29:51;;;;;;;1.20;0.80;;;;;;;17.57;100.00;98346.44;5071440;28;20194;-77
2023/07/26 03:32:18;;;;;;;0.60;0.60;;;;;;;17.59;100.00;98358.63;5071966;28;20208;-76
2023/07/26 03:34:48;;;;;;;0.73;0.70;;;;;;;17.47;100.00;98363.66;5054728;28;20679;-78
2023/07/26 03:37:15;;;;;;;0.73;0.60;;;;;;;17.42;100.00;98357.53;5071995;28;20232;-77
2023/07/26 03:39:41;;;;;;;0.67;0.67;;;;;;;17.25;100.00;98355.34;5071998;28;20220;-79
2023/07/26 03:42:08;;;;;;;1.77;0.70;;;;;;;17.34;100.00;98350.88;5071786;28;20197;-77
2023/07/26 03:44:35;;;;;;;0.63;0.50;;;;;;;17.26;100.00;98356.97;5071839;28;20665;-77
2023/07/26 03:47:01;;;;;;;1.73;0.63;;;;;;;17.27;100.00;98342.31;5070762;28;20566;-77
2023/07/26 03:49:29;;;;;;;0.60;0.60;;;;;;;17.13;100.00;98350.38;5072236;28;20185;-77
2023/07/26 03:51:56;;;;;;;0.70;0.70;;;;;;;17.04;100.00;98349.41;5072165;28;20201;-77
2023/07/26 03:54:23;;;;;;;0.80;0.80;;;;;;;16.89;100.00;98351.53;5071826;28;20543;-78
2023/07/26 03:56:50;;;;;;;0.80;0.60;;;;;;;16.85;100.00;98356.72;5072345;28;20197;-77
2023/07/26 03:59:18;;;;;;;0.70;0.70;;;;;;;16.85;100.00;98351.28;5041343;28;20498;-77
2023/07/26 04:01:45;;;;;;;0.93;0.80;;;;;;;16.83;100.00;98358.09;5067521;28;20536;-77
2023/07/26 04:04:12;;;;;;;0.70;0.70;;;;;;;16.75;100.00;98358.75;5050281;28;20247;-78
2023/07/26 04:06:39;;;;;;;0.97;0.83;;;;;;;16.69;100.00;98360.72;5061649;28;20220;-76
2023/07/26 04:09:06;;;;;;;0.97;0.70;;;;;;;16.80;100.00;98359.47;5071434;28;20185;-79
2023/07/26 04:11:32;;;;;;;1.67;0.90;;;;;;;16.77;100.00;98367.38;5067680;28;20197;-78
2023/07/26 04:13:59;;;;;;;0.70;0.70;;;;;;;16.61;100.00;98372.97;5071749;28;20193;-77
2023/07/26 04:16:26;;;;;;;1.43;0.97;;;;;;;16.60;100.00;98367.88;5071451;28;20542;-77
2023/07/26 04:18:53;;;;;;;1.30;1.20;;;;;;;16.51;100.00;98369.56;5069632;28;20220;-78
2023/07/26 04:21:19;;;;;;;1.13;1.00;;;;;;;16.50;100.00;98365.25;5071805;28;20562;-77
2023/07/26 04:23:46;;;;;;;1.70;0.80;;;;;;;16.37;100.00;98364.06;5070187;28;20197;-77
2023/07/26 04:26:13;;;;;;;1.37;1.23;;;;;;;16.43;100.00;98371.00;5071410;28;20217;-78
2023/07/26 04:28:40;;;;;;;1.97;1.00;;;;;;;16.28;100.00;98365.78;5068568;28;20216;-78
2023/07/26 04:31:07;;;;;;;2.10;1.27;;;;;;;16.12;100.00;98375.13;5069915;28;20272;-78
2023/07/26 04:33:33;;;;;;;1.73;1.23;;;;;;;16.25;100.00;98380.66;5071900;28;20207;-78
2023/07/26 04:36:00;;;;;;;1.40;1.30;;;;;;;16.11;100.00;98376.19;5071280;28;20224;-78
2023/07/26 04:38:27;;;;;;;1.40;1.30;;;;;;;16.10;100.00;98372.69;5070631;28;20199;-78
2023/07/26 04:40:54;;;;;;;1.73;1.30;;;;;;;16.02;100.00;98372.50;5071659;28;20189;-78
2023/07/26 04:43:20;;;;;;;1.30;1.20;;;;;;;16.05;100.00;98374.66;5071849;28;20590;-77
2023/07/26 04:45:48;;;;;;;1.30;1.20;;;;;;;16.03;100.00;98374.13;5071570;28;20223;-77
2023/07/26 04:48:19;;;;;;;1.87;1.10;;;;;;;16.15;100.00;98377.22;5049668;28;20643;-77
2023/07/26 04:50:47;;;;;;;1.10;1.00;;;;;;;16.12;100.00;98367.81;5075112;28;20201;-77
2023/07/26 04:53:14;;;;;;;1.30;1.20;;;;;;;16.18;100.00;98373.97;5075610;28;20189;-78
2023/07/26 04:55:46;;;;;;;1.27;1.17;;;;;;;16.35;100.00;98374.31;5057427;28;20227;-78
2023/07/26 04:58:13;;;;;;;1.60;1.30;;;;;;;16.51;100.00;98374.97;5074689;28;20220;-78
2023/07/26 05:00:40;;;;;;;1.63;0.90;;;;;;;16.70;100.00;98382.03;5070587;28;20215;-76
2023/07/26 05:03:09;;;;;;;1.57;1.07;;;;;;;16.99;100.00;98379.25;5074814;28;20208;-78
2023/07/26 05:05:36;;;;;;;2.23;1.10;;;;;;;17.13;100.00;98388.25;5074469;28;20240;-78
2023/07/26 05:08:04;;;;;;;0.87;0.83;;;;;;;17.17;100.00;98402.81;5075163;28;20201;-78
2023/07/26 05:10:31;;;;;;;0.70;0.70;;;;;;;16.81;100.00;98407.06;5074653;28;20194;-77
2023/07/26 05:12:58;;;;;;;0.90;0.90;;;;;;;16.75;100.00;98412.84;5074928;28;20199;-77
2023/07/26 05:15:25;;;;;;;1.13;0.80;;;;;;;16.69;100.00;98410.22;5074389;28;20193;-78
2023/07/26 05:17:52;;;;;;;0.70;0.70;;;;;;;16.70;100.00;98411.78;5058568;28;20205;-77
2023/07/26 05:20:19;;;;;;;0.87;0.60;;;;;;;16.49;100.00;98429.31;5074432;28;20185;-77
2023/07/26 05:22:45;;;;;;;0.80;0.80;;;;;;;16.38;100.00;98433.22;5074728;28;20616;-77
2023/07/26 05:25:12;;;;;;;1.33;0.67;;;;;;;16.33;100.00;98427.84;5074429;28;20719;-77
2023/07/26 05:27:39;;;;;;;1.13;0.67;;;;;;;16.34;100.00;98442.19;5074565;28;20208;-78
2023/07/26 05:30:06;;;;;;;0.80;0.80;;;;;;;16.32;100.00;98452.47;5073687;28;20197;-76
2023/07/26 05:32:33;;;;;;;1.10;1.00;;;;;;;16.12;100.00;98453.47;5074519;28;20280;-77
2023/07/26 05:35:00;;;;;;;1.63;1.00;;;;;;;16.11;100.00;98465.34;5074081;28;20652;-77
2023/07/26 05:37:26;;;;;;;1.27;0.90;;;;;;;16.11;100.00;98463.47;5074377;28;20189;-78
2023/07/26 05:39:53;;;;;;;2.97;1.20;;;;;;;16.18;100.00;98468.56;5074196;28;20656;-77
2023/07/26 05:42:20;;;;;;;1.60;0.90;;;;;;;16.10;100.00;98477.25;5074316;28;20562;-78
2023/07/26 05:44:46;;;;;;;0.60;0.60;;;;;;;16.04;100.00;98476.50;5074358;28;20217;-77
2023/07/26 05:47:14;;;;;;;0.60;0.60;;;;;;;16.06;100.00;98479.72;5074485;28;20208;-77
2023/07/26 05:49:42;;;;;;;0.53;0.53;;;;;;;16.07;100.00;98486.75;5074285;28;20189;-77
2023/07/26 05:52:09;;;;;;;0.63;0.63;;;;;;;16.00;100.00;98507.88;5074202;28;20287;-78
2023/07/26 05:54:36;;;;;;;0.70;0.60;;;;;;;15.89;100.00;98495.53;5073410;28;20676;-78
2023/07/26 05:57:03;;;;;;;0.77;0.77;;;;;;;15.96;100.00;98514.91;5071664;28;20254;-77
2023/07/26 05:59:29;;;;;;;0.80;0.60;;;;;;;15.94;100.00;98519.81;5072893;28;20196;-76
2023/07/26 06:01:58;;;;;;;0.80;0.80;;;;;;;16.03;100.00;98512.72;5070994;28;20205;-78
2023/07/26 06:04:25;;;;;;;1.30;0.80;;;;;;;16.01;100.00;98517.56;5073268;28;20307;-78
2023/07/26 06:06:52;;;;;;;0.70;0.70;;;;;;;15.95;100.00;98510.63;5074017;28;20232;-77
2023/07/26 06:09:20;;;;;;;0.67;0.67;;;;;;;16.03;100.00;98511.91;5074168;28;20644;-78
2023/07/26 06:11:47;;;;;;;0.83;0.83;;;;;;;15.82;100.00;98525.53;5073639;28;20189;-78
2023/07/26 06:14:24;;;;;;;1.07;0.97;;;;;;;15.82;100.00;98525.53;5070061;28;20238;-77
2023/07/26 06:16:52;;;;;;;1.27;1.10;;;;;;;15.90;100.00;98531.44;5073556;28;20193;-78
2023/07/26 06:19:19;;;;;;;0.90;0.90;;;;;;;15.96;100.00;98539.22;5073546;28;20197;-78
2023/07/26 06:21:46;;;;;;;0.80;0.80;;;;;;;15.82;100.00;98541.75;5073697;28;20193;-77
2023/07/26 06:24:13;;;;;;;0.80;0.80;;;;;;;15.94;100.00;98543.31;5073846;28;20857;-78
2023/07/26 06:26:39;;;;;;;1.83;1.00;;;;;;;15.89;100.00;98548.75;5066356;28;20647;-80
2023/07/26 06:29:06;;;;;;;1.10;1.00;;;;;;;16.01;100.00;98557.28;5069136;28;20204;-77
2023/07/26 06:31:33;;;;;;;1.20;1.10;;;;;;;15.89;100.00;98560.34;5051551;28;20274;-78
2023/07/26 06:34:00;;;;;;;1.10;1.00;;;;;;;16.10;100.00;98552.91;5071783;28;20224;-77
2023/07/26 06:36:27;;;;;;;1.07;1.07;;;;;;;16.05;100.00;98555.66;5072059;28;20217;-78
2023/07/26 06:38:53;;;;;;;1.20;1.10;;;;;;;16.29;100.00;98559.25;5072217;28;20614;-77
2023/07/26 06:41:20;;;;;;;1.00;0.90;;;;;;;16.40;100.00;98558.09;5070556;28;20185;-78
2023/07/26 06:43:47;;;;;;;1.07;1.00;;;;;;;16.63;100.00;98579.00;5071969;28;20197;-77
2023/07/26 06:46:13;;;;;;;1.00;1.00;;;;;;;16.87;100.00;98587.19;5070185;28;20228;-78
2023/07/26 06:48:40;;;;;;;1.53;1.20;;;;;;;16.99;100.00;98567.84;5062843;28;20197;-78
2023/07/26 06:51:11;;;;;;;1.27;1.20;;;;;;;17.25;100.00;98573.78;5066939;28;20197;-78
2023/07/26 06:53:37;;;;;;;1.80;1.30;;;;;;;17.42;100.00;98585.75;5072569;28;20246;-77
2023/07/26 06:56:04;;;;;;;1.63;1.20;;;;;;;17.37;100.00;98593.94;5072417;28;20578;-77
2023/07/26 06:58:31;;;;;;;1.60;1.10;;;;;;;17.18;100.00;98593.88;5066633;28;20201;-77
2023/07/26 07:00:58;;;;;;;1.30;1.20;;;;;;;17.56;100.00;98599.41;5066010;28;20785;-78
2023/07/26 07:03:25;;;;;;;1.47;1.10;;;;;;;17.70;100.00;98596.81;5069025;28;20318;-77
2023/07/26 07:05:52;;;;;;;1.80;1.00;;;;;;;17.90;100.00;98588.44;5068043;28;20233;-77
2023/07/26 07:08:18;;;;;;;1.00;0.93;;;;;;;17.96;100.00;98595.41;5064965;28;20201;-77
2023/07/26 07:10:45;;;;;;;2.40;0.80;;;;;;;18.06;100.00;98594.44;5069471;28;20582;-77
2023/07/26 07:13:12;;;;;;;1.00;0.63;;;;;;;18.12;100.00;98604.09;5070542;28;20789;-77
2023/07/26 07:15:38;;;;;;;0.93;0.70;;;;;;;18.32;100.00;98606.53;5068851;28;20201;-77
2023/07/26 07:18:05;;;;;;;0.70;0.70;;;;;;;18.39;100.00;98610.47;5069089;28;20195;-77
2023/07/26 07:20:35;;;;;;;1.70;0.53;;;;;;;18.54;100.00;98612.16;5058517;28;20652;-77
2023/07/26 07:23:01;;;;;;;0.70;0.70;;;;;;;18.72;100.00;98616.75;5065003;28;20697;-77
2023/07/26 07:25:28;;;;;;;1.00;0.80;;;;;;;18.57;100.00;98616.22;5064544;28;20201;-77
2023/07/26 07:27:55;;;;;;;1.90;0.90;;;;;;;18.62;100.00;98621.53;5069156;28;20714;-77
2023/07/26 07:30:21;;;;;;;0.90;0.90;;;;;;;18.43;100.00;98622.31;5057851;28;20260;-77
2023/07/26 07:32:48;;;;;;;1.10;0.80;;;;;;;18.50;100.00;98616.53;5057614;28;20198;-78
2023/07/26 07:35:15;;;;;;;1.23;0.90;;;;;;;18.82;100.00;98618.47;5058730;28;20272;-77
2023/07/26 07:37:42;;;;;;;1.20;1.10;;;;;;;19.11;100.00;98623.69;5060581;28;20647;-77
2023/07/26 07:40:09;;;;;;;1.10;1.00;;;;;;;19.25;100.00;98627.22;5062963;28;20276;-78
2023/07/26 07:42:35;;;;;;;1.80;1.10;;;;;;;19.05;100.00;98622.16;5064232;28;20199;-77
2023/07/26 07:45:04;;;;;;;1.10;1.00;;;;;;;19.43;100.00;98620.88;5056780;28;20656;-77
2023/07/26 07:47:31;;;;;;;3.30;1.30;;;;;;;19.40;100.00;98629.66;5059195;28;20195;-78
2023/07/26 07:49:57;;;;;;;1.23;1.13;;;;;;;19.48;100.00;98628.16;5057841;28;20197;-78
2023/07/26 07:52:24;;;;;;;1.83;1.20;;;;;;;19.93;100.00;98635.38;5058098;28;20213;-77
2023/07/26 07:54:51;;;;;;;2.53;1.70;;;;;;;19.45;100.00;98636.94;5065194;28;20219;-77
2023/07/26 07:57:18;;;;;;;1.40;1.30;;;;;;;19.43;100.00;98639.91;5065084;28;20266;-77
2023/07/26 07:59:44;;;;;;;1.30;1.20;;;;;;;19.66;100.00;98638.94;5071819;28;20198;-78
2023/07/26 08:02:11;;;;;;;1.53;1.43;;;;;;;20.10;100.00;98651.06;5066607;28;20307;-78
2023/07/26 08:04:41;;;;;;;1.40;1.30;;;;;;;19.94;100.00;98642.44;5061731;28;20194;-80
2023/07/26 08:07:08;;;;;;;1.47;1.37;;;;;;;20.20;100.00;98645.41;5084783;28;20308;-79
2023/07/26 08:09:34;;;;;;;2.10;1.37;;;;;;;20.21;100.00;98658.69;5105611;28;20247;-77
2023/07/26 08:12:02;;;;;;;2.33;1.60;;;;;;;20.17;100.00;98652.25;5095984;28;20190;-77
2023/07/26 08:14:29;;;;;;;1.60;1.43;;;;;;;20.37;100.00;98652.94;5094403;28;20202;-77
2023/07/26 08:16:56;;;;;;;1.70;1.60;;;;;;;20.47;100.00;98658.97;5092501;28;20261;-77
2023/07/26 08:19:22;;;;;;;1.33;1.30;;;;;;;20.73;100.00;98653.72;5094841;28;20190;-77
2023/07/26 08:21:49;;;;;;;3.60;1.57;;;;;;;20.90;100.00;98661.22;5101042;28;20250;-78
2023/07/26 08:24:16;;;;;;;1.93;1.70;;;;;;;20.88;100.00;98649.81;5092792;28;20201;-78
2023/07/26 08:26:43;;;;;;;1.80;1.70;;;;;;;20.83;100.00;98658.91;5100665;28;20226;-78
2023/07/26 08:29:13;;;;;;;2.47;1.60;;;;;;;20.80;100.00;98664.19;5091796;28;20228;-78
2023/07/26 08:31:39;;;;;;;2.13;1.77;;;;;;;20.56;100.00;98650.88;5096131;28;20198;-78
2023/07/26 08:34:06;;;;;;;2.00;1.80;;;;;;;19.86;100.00;98659.47;5084036;28;20195;-76
2023/07/26 08:36:34;;;;;;;1.97;1.77;;;;;;;20.28;100.00;98650.13;5102327;28;20205;-78
2023/07/26 08:39:00;;;;;;;2.00;1.50;;;;;;;20.53;100.00;98660.44;5088125;28;20205;-78
2023/07/26 08:41:28;;;;;;;1.93;1.67;;;;;;;20.11;100.00;98652.69;5096542;28;20193;-77
2023/07/26 08:43:55;;;;;;;2.10;1.80;;;;;;;20.30;100.00;98666.97;5067456;28;20213;-77
2023/07/26 08:46:23;;;;;;;3.17;1.50;;;;;;;20.29;100.00;98672.69;5076332;28;20268;-76
2023/07/26 08:48:50;;;;;;;1.67;1.57;;;;;;;20.13;100.00;98658.59;5096599;28;20202;-78
2023/07/26 08:51:19;;;;;;;1.73;1.63;;;;;;;20.00;100.00;98656.72;5108117;28;20189;-78
2023/07/26 08:53:46;;;;;;;1.70;1.60;;;;;;;20.15;100.00;98656.41;5109521;28;20247;-77
2023/07/26 08:56:14;;;;;;;1.60;1.50;;;;;;;20.13;100.00;98662.13;5089098;28;20237;-77
2023/07/26 08:58:42;;;;;;;2.67;1.63;;;;;;;19.83;100.00;98662.00;5075303;28;20202;-78
2023/07/26 09:01:09;;;;;;;1.60;1.50;;;;;;;20.24;100.00;98657.28;5096505;28;20210;-78
2023/07/26 09:03:36;;;;;;;1.60;1.50;;;;;;;20.53;100.00;98656.94;5094149;28;20194;-77
2023/07/26 09:06:08;;;;;;;1.80;1.70;;;;;;;20.40;100.00;98661.28;5086698;28;20240;-77
2023/07/26 09:08:35;;;;;;;1.87;1.67;;;;;;;20.43;100.00;98657.16;5070637;28;20611;-77
2023/07/26 09:11:23;;;;;;;1.77;1.60;;;;;;;20.29;100.00;98669.97;5069767;28;20225;-77
2023/07/26 09:13:58;;;;;;;2.67;1.90;;;;;;;20.01;100.00;98663.78;5040576;28;20207;-77
2023/07/26 09:16:30;;;;;;;2.20;1.80;;;;;;;19.98;100.00;98667.09;5057538;28;20281;-75
2023/07/26 09:19:01;;;;;;;1.70;1.60;;;;;;;20.62;100.00;98671.41;5072981;28;20190;-77
2023/07/26 09:21:30;;;;;;;3.60;2.00;;;;;;;20.85;100.00;98681.19;5068857;28;20633;-77
2023/07/26 09:23:59;;;;;;;3.17;2.00;;;;;;;20.85;100.00;98667.59;5076194;28;20199;-77
2023/07/26 09:26:39;;;;;;;2.13;1.90;;;;;;;20.85;100.00;98669.50;5075909;28;20237;-77
2023/07/26 09:29:11;;;;;;;2.97;1.80;;;;;;;20.72;100.00;98673.88;5069299;28;20294;-78
2023/07/26 09:31:41;;;;;;;5.00;1.97;;;;;;;20.99;100.00;98681.13;5059988;28;20192;-77
2023/07/26 09:34:11;;;;;;;2.10;2.00;;;;;;;20.97;100.00;98686.88;5069001;28;20716;-76
2023/07/26 09:36:41;;;;;;;4.13;2.10;;;;;;;20.82;100.00;98681.78;5061619;28;20190;-77
2023/07/26 09:39:08;;;;;;;2.27;1.87;;;;;;;21.02;100.00;98689.47;5070298;28;20204;-78
2023/07/26 09:41:36;;;;;;;2.33;1.90;;;;;;;20.84;100.00;98689.66;5067411;28;20276;-77
2023/07/26 09:44:07;;;;;;;3.23;2.00;;;;;;;21.12;100.00;98684.88;5068774;28;20188;-77
2023/07/26 09:46:51;;;;;;;2.20;1.77;;;;;;;21.04;100.00;98683.72;5068629;28;20204;-78
2023/07/26 09:49:21;;;;;;;1.80;1.70;;;;;;;21.15;100.00;98685.09;5070436;28;20190;-78
2023/07/26 09:51:54;;;;;;;1.83;1.70;;;;;;;20.69;100.00;98690.81;5073489;28;20249;-77
2023/07/26 09:54:30;;;;;;;3.33;2.10;;;;;;;20.55;100.00;98692.78;5065608;28;20653;-78
2023/07/26 09:57:00;;;;;;;4.00;1.90;;;;;;;21.25;100.00;98692.22;5073884;28;20280;-77
2023/07/26 09:59:29;;;;;;;2.80;2.10;;;;;;;21.65;100.00;98698.50;5062156;28;20212;-77
2023/07/26 10:01:59;;;;;;;2.33;1.90;;;;;;;21.53;100.00;98691.72;5065837;28;20539;-77
2023/07/26 10:04:58;;;;;;;2.07;1.87;;;;;;;21.70;100.00;98693.69;5068406;28;20184;-78
2023/07/26 10:07:26;;;;;;;4.07;2.00;;;;;;;21.95;100.00;98703.13;5061629;28;20320;-78
2023/07/26 10:09:53;;;;;;;2.80;1.80;;;;;;;21.97;100.00;98683.75;5064163;28;20194;-77
2023/07/26 10:12:24;;;;;;;2.90;1.77;;;;;;;22.01;100.00;98679.25;5061040;28;20210;-77
2023/07/26 10:14:53;;;;;;;3.43;2.00;;;;;;;22.15;100.00;98697.09;5064799;28;20200;-77
2023/07/26 10:17:20;;;;;;;1.80;1.70;;;;;;;22.36;97.78;98689.09;5064745;28;20213;-78
2023/07/26 10:19:48;;;;;;;2.50;1.80;;;;;;;22.56;97.89;98696.66;5028048;28;20191;-77
2023/07/26 10:22:15;;;;;;;3.00;1.73;;;;;;;22.53;93.29;98694.59;5049408;28;20545;-77
2023/07/26 10:24:42;;;;;;;2.13;1.93;;;;;;;22.44;93.88;98698.44;5060793;28;20203;-77
2023/07/26 10:27:09;;;;;;;2.47;1.80;;;;;;;22.90;91.50;98692.38;5058083;28;20264;-79
2023/07/26 10:29:36;;;;;;;3.30;1.80;;;;;;;23.15;91.36;98695.03;5047725;28;20196;-78
2023/07/26 10:32:06;;;;;;;2.65;1.73;;;;;;;23.32;88.39;98690.69;5056457;28;20196;-77
2023/07/26 10:34:33;;;;;;;2.43;1.60;;;;;;;23.59;86.44;98693.03;5050503;28;20195;-77
2023/07/26 10:37:13;;;;;;;1.70;1.60;;;;;;;23.84;85.92;98694.06;5058047;28;20215;-77
2023/07/26 10:39:40;;;;;;;2.30;1.70;;;;;;;23.88;82.25;98705.94;5072824;28;20193;-78
2023/07/26 10:42:20;;;;;;;2.03;1.67;;;;;;;24.37;82.55;98705.22;5072564;28;20193;-77
2023/07/26 10:44:47;;;;;;;3.25;1.70;;;;;;;23.86;82.21;98709.00;5070704;28;20296;-77
2023/07/26 10:47:14;;;;;;;1.67;1.48;;;;;;;23.80;83.36;98713.03;5071442;28;20219;-77
2023/07/26 10:49:46;;;;;;;2.83;1.70;;;;;;;22.86;80.75;98705.06;5072173;28;20201;-78
2023/07/26 10:52:13;;;;;;;2.70;1.83;;;;;;;22.02;80.72;98710.88;5071450;28;20207;-77
2023/07/26 10:54:50;;;;;;;1.70;1.60;;;;;;;21.82;84.11;98734.00;5061459;28;20203;-78
2023/07/26 10:57:23;;;;;;;3.00;1.70;;;;;;;21.04;89.03;98746.38;5048705;28;20201;-78
2023/07/26 11:00:00;;;;;;;1.67;1.57;;;;;;;21.07;93.47;98751.19;5068904;28;20198;-77
2023/07/26 11:02:45;;;;;;;2.73;1.70;;;;;;;21.16;97.96;98754.81;5057960;28;20224;-78
2023/07/26 11:05:17;;;;;;;1.87;1.67;;;;;;;21.29;100.00;98764.81;5049139;28;20196;-77
2023/07/26 11:08:00;;;;;;;3.47;1.70;;;;;;;21.64;100.00;98756.88;5093282;28;20585;-78
2023/07/26 11:10:37;;;;;;;1.70;1.53;;;;;;;21.85;100.00;98763.38;5080018;28;20679;-77
2023/07/26 11:13:09;;;;;;;2.43;1.73;;;;;;;22.54;100.00;98761.69;5076930;28;20190;-77
2023/07/26 11:15:37;;;;;;;2.00;1.90;;;;;;;23.03;100.00;98762.41;5075160;28;20688;-77
2023/07/26 11:18:24;;;;;;;1.98;1.70;;;;;;;23.37;100.00;98754.19;5095237;28;20650;-77
2023/07/26 11:20:52;;;;;;;2.50;1.73;;;;;;;23.50;100.00;98738.75;5095844;28;20528;-78
2023/07/26 11:23:26;;;;;;;2.00;1.80;;;;;;;23.37;100.00;98748.72;5092970;28;20197;-77
2023/07/26 11:25:59;;;;;;;2.60;1.73;;;;;;;22.94;100.00;98747.94;5090714;28;20195;-77
2023/07/26 11:28:31;;;;;;;2.80;2.20;;;;;;;23.05;100.00;98749.25;5073099;28;20215;-77
2023/07/26 11:31:01;;;;;;;2.87;1.83;;;;;;;23.11;100.00;98748.72;5079474;28;20220;-78
2023/07/26 11:33:30;;;;;;;3.50;1.92;;;;;;;23.50;100.00;98746.94;5086416;28;20197;-77
2023/07/26 11:35:58;;;;;;;2.65;1.90;;;;;;;23.89;99.34;98748.59;5092146;28;20185;-77